createdAt,value
2018-12-08T00:00:42.171Z,7.40
2018-12-08T00:03:10.735Z,7.30
2018-12-08T00:05:38.957Z,7.30
2018-12-08T00:08:07.150Z,7.30
2018-12-08T00:10:35.432Z,7.20
2018-12-08T00:13:03.719Z,7.40
2018-12-08T00:15:31.882Z,7.40
2018-12-08T00:18:00.060Z,7.50
2018-12-08T00:20:28.389Z,7.40
2018-12-08T00:22:56.559Z,7.40
2018-12-08T00:25:24.716Z,7.40
2018-12-08T00:27:52.910Z,7.50
2018-12-08T00:31:32.368Z,7.40
2018-12-08T00:34:00.772Z,7.50
2018-12-08T00:36:28.917Z,7.50
2018-12-08T00:38:57.163Z,7.50
2018-12-08T00:41:25.341Z,7.50
2018-12-08T00:43:53.518Z,7.50
2018-12-08T00:46:21.700Z,7.50
2018-12-08T00:48:50.043Z,7.50
2018-12-08T00:51:18.181Z,7.50
2018-12-08T00:53:46.398Z,7.50
2018-12-08T00:56:14.571Z,7.50
2018-12-08T00:58:42.737Z,7.60
2018-12-08T01:01:11.034Z,7.60
2018-12-08T01:03:39.283Z,7.60
2018-12-08T01:06:07.485Z,7.50
2018-12-08T01:08:35.789Z,7.40
2018-12-08T01:11:04.064Z,7.40
2018-12-08T01:13:32.312Z,7.30
2018-12-08T01:16:00.626Z,7.30
2018-12-08T01:18:28.817Z,7.20
2018-12-08T01:20:57.031Z,7.20
2018-12-08T01:23:25.217Z,7.30
2018-12-08T01:25:53.491Z,7.30
2018-12-08T01:28:21.791Z,7.30
2018-12-08T01:30:49.955Z,7.30
2018-12-08T01:33:18.109Z,7.30
2018-12-08T01:35:46.294Z,7.30
2018-12-08T01:38:14.469Z,7.30
2018-12-08T01:40:42.819Z,7.20
2018-12-08T01:43:11.040Z,7.20
2018-12-08T01:45:39.372Z,7.20
2018-12-08T01:48:07.544Z,7.20
2018-12-08T01:50:35.798Z,7.20
2018-12-08T01:53:04.004Z,7.20
2018-12-08T01:55:32.265Z,7.20
2018-12-08T01:58:00.574Z,7.20
2018-12-08T02:00:28.757Z,7.30
2018-12-08T02:02:56.917Z,7.30
2018-12-08T02:05:25.121Z,7.20
2018-12-08T02:07:53.278Z,7.30
2018-12-08T02:10:21.441Z,7.30
2018-12-08T02:12:49.617Z,7.30
2018-12-08T02:15:17.766Z,7.30
2018-12-08T02:17:45.924Z,7.30
2018-12-08T02:20:14.115Z,7.40
2018-12-08T02:22:42.287Z,7.40
2018-12-08T02:25:10.657Z,7.40
2018-12-08T02:27:38.930Z,7.40
2018-12-08T02:30:07.573Z,7.40
2018-12-08T02:32:35.728Z,7.40
2018-12-08T02:35:04.115Z,7.40
2018-12-08T02:37:32.304Z,7.30
2018-12-08T02:40:00.563Z,7.20
2018-12-08T02:42:28.783Z,7.20
2018-12-08T02:44:56.939Z,7.20
2018-12-08T02:47:25.146Z,7.10
2018-12-08T02:49:53.482Z,7.10
2018-12-08T02:52:22.478Z,7.10
2018-12-08T02:54:50.655Z,7.10
2018-12-08T02:57:18.838Z,7.10
2018-12-08T02:59:47.012Z,7.10
2018-12-08T03:02:15.260Z,7.10
2018-12-08T03:04:43.621Z,7.10
2018-12-08T03:07:11.774Z,7.10
2018-12-08T03:09:39.963Z,7.10
2018-12-08T03:12:08.122Z,7.10
2018-12-08T03:14:36.287Z,7.10
2018-12-08T03:17:04.950Z,7.20
2018-12-08T03:19:33.283Z,7.40
2018-12-08T03:22:01.447Z,7.40
2018-12-08T03:24:29.710Z,7.50
2018-12-08T03:26:58.008Z,7.50
2018-12-08T03:29:26.151Z,7.60
2018-12-08T03:31:54.823Z,7.60
2018-12-08T03:34:23.283Z,7.70
2018-12-08T03:36:51.444Z,7.70
2018-12-08T03:39:19.743Z,7.60
2018-12-08T03:41:47.936Z,7.60
2018-12-08T03:44:16.079Z,7.70
2018-12-08T03:46:44.263Z,7.70
2018-12-08T03:49:12.546Z,7.80
2018-12-08T03:51:40.796Z,7.90
2018-12-08T03:54:09.055Z,7.90
2018-12-08T03:56:37.232Z,8.00
2018-12-08T03:59:05.496Z,8.00
2018-12-08T04:01:33.636Z,8.00
2018-12-08T04:04:01.816Z,8.10
2018-12-08T04:06:30.138Z,8.10
2018-12-08T04:08:58.387Z,8.10
2018-12-08T04:11:26.583Z,8.10
2018-12-08T04:13:54.743Z,8.10
2018-12-08T04:16:22.906Z,8.20
2018-12-08T04:18:51.098Z,8.20
2018-12-08T04:21:19.279Z,8.20
2018-12-08T04:23:47.538Z,8.20
2018-12-08T04:26:15.746Z,8.20
2018-12-08T04:28:43.915Z,8.20
2018-12-08T04:31:12.080Z,8.30
2018-12-08T04:33:40.263Z,8.30
2018-12-08T04:36:08.447Z,8.30
2018-12-08T04:38:36.673Z,8.30
2018-12-08T04:41:05.400Z,8.30
2018-12-08T04:43:33.634Z,8.30
2018-12-08T04:46:01.798Z,8.30
2018-12-08T04:48:29.995Z,8.20
2018-12-08T04:50:58.253Z,8.20
2018-12-08T04:53:26.505Z,8.20
2018-12-08T04:55:54.689Z,8.20
2018-12-08T04:58:22.887Z,8.30
2018-12-08T05:00:51.211Z,8.30
2018-12-08T05:03:19.355Z,8.30
2018-12-08T05:05:47.583Z,8.30
2018-12-08T05:08:15.799Z,8.30
2018-12-08T05:10:44.145Z,8.30
2018-12-08T05:13:12.330Z,8.40
2018-12-08T05:15:40.491Z,8.30
2018-12-08T05:18:08.704Z,8.30
2018-12-08T05:20:36.907Z,8.30
2018-12-08T05:23:05.170Z,8.20
2018-12-08T05:25:33.555Z,8.20
2018-12-08T05:28:01.724Z,8.20
2018-12-08T05:30:29.976Z,8.10
2018-12-08T05:32:58.137Z,8.10
2018-12-08T05:35:26.287Z,8.10
2018-12-08T05:37:54.536Z,8.10
2018-12-08T05:40:22.720Z,8.10
2018-12-08T05:42:50.898Z,8.20
2018-12-08T05:45:19.139Z,8.20
2018-12-08T05:47:47.323Z,8.20
2018-12-08T05:50:15.487Z,8.20
2018-12-08T05:52:43.847Z,8.20
2018-12-08T05:55:12.167Z,8.20
2018-12-08T05:57:40.420Z,8.20
2018-12-08T06:00:09.380Z,8.20
2018-12-08T06:02:37.565Z,8.20
2018-12-08T06:05:06.962Z,8.20
2018-12-08T06:07:35.274Z,8.30
2018-12-08T06:10:03.772Z,8.30
2018-12-08T06:12:31.994Z,8.30
2018-12-08T06:15:01.027Z,8.30
2018-12-08T06:17:29.228Z,8.30
2018-12-08T06:19:57.398Z,8.30
2018-12-08T06:22:25.860Z,8.30
2018-12-08T06:24:54.006Z,8.30
2018-12-08T06:28:04.577Z,8.30
2018-12-08T06:30:32.735Z,8.30
2018-12-08T06:33:00.916Z,8.30
2018-12-08T06:35:29.466Z,8.20
2018-12-08T06:37:57.655Z,8.30
2018-12-08T06:40:29.191Z,8.30
2018-12-08T06:42:56.407Z,8.20
2018-12-08T06:45:24.651Z,8.10
2018-12-08T06:47:52.884Z,8.10
2018-12-08T06:50:21.089Z,8.10
2018-12-08T06:52:49.256Z,8.20
2018-12-08T06:55:17.455Z,8.10
2018-12-08T06:57:45.671Z,8.10
2018-12-08T07:00:14.271Z,8.10
2018-12-08T07:02:42.551Z,8.10
2018-12-08T07:05:10.772Z,8.00
2018-12-08T07:07:39.044Z,8.10
2018-12-08T07:10:07.562Z,8.00
2018-12-08T07:12:35.723Z,7.90
2018-12-08T07:15:04.287Z,7.90
2018-12-08T07:17:32.482Z,7.90
2018-12-08T07:20:00.743Z,7.90
2018-12-08T07:22:29.035Z,7.90
2018-12-08T07:24:57.239Z,7.80
2018-12-08T07:27:25.417Z,7.80
2018-12-08T07:29:53.569Z,7.70
2018-12-08T07:32:21.755Z,7.60
2018-12-08T07:34:49.958Z,7.50
2018-12-08T07:37:18.255Z,7.50
2018-12-08T07:39:46.425Z,7.50
2018-12-08T07:42:15.877Z,7.50
2018-12-08T07:44:44.119Z,7.40
2018-12-08T07:47:12.427Z,7.30
2018-12-08T07:49:40.734Z,7.30
2018-12-08T07:52:08.925Z,7.40
2018-12-08T07:54:37.123Z,7.40
2018-12-08T07:57:06.289Z,7.30
2018-12-08T07:59:34.503Z,7.40
2018-12-08T08:02:02.667Z,7.40
2018-12-08T08:04:30.864Z,7.50
2018-12-08T08:06:59.297Z,7.60
2018-12-08T08:09:27.577Z,7.70
2018-12-08T08:11:56.186Z,7.70
2018-12-08T08:14:24.491Z,7.70
2018-12-08T08:16:52.782Z,7.80
2018-12-08T08:19:21.427Z,7.80
2018-12-08T08:21:50.929Z,7.80
2018-12-08T08:24:19.231Z,7.80
2018-12-08T08:26:47.527Z,7.80
2018-12-08T08:29:15.927Z,7.80
2018-12-08T08:31:44.274Z,7.70
2018-12-08T08:34:12.791Z,7.80
2018-12-08T08:36:41.119Z,7.80
2018-12-08T08:39:11.100Z,7.90
2018-12-08T08:41:39.579Z,7.90
2018-12-08T08:44:08.804Z,8.00
2018-12-08T08:46:37.442Z,8.00
2018-12-08T08:49:05.645Z,8.00
2018-12-08T08:51:33.967Z,8.10
2018-12-08T08:54:02.191Z,8.10
2018-12-08T08:56:30.489Z,8.10
2018-12-08T08:58:59.017Z,8.20
2018-12-08T09:01:27.437Z,8.40
2018-12-08T09:03:56.367Z,8.40
2018-12-08T09:06:25.350Z,8.60
2018-12-08T09:08:53.561Z,8.70
2018-12-08T09:11:21.742Z,8.70
2018-12-08T09:13:49.944Z,8.70
2018-12-08T09:16:18.220Z,8.70
2018-12-08T09:18:46.521Z,8.70
2018-12-08T09:21:14.710Z,8.70
2018-12-08T09:23:43.735Z,8.70
2018-12-08T09:26:12.061Z,8.70
2018-12-08T09:28:40.263Z,8.80
2018-12-08T09:33:36.506Z,8.70
2018-12-08T09:36:04.718Z,8.80
2018-12-08T09:38:33.444Z,8.90
2018-12-08T09:43:29.784Z,9.00
2018-12-08T09:45:58.365Z,9.00
2018-12-08T09:48:26.778Z,9.00
2018-12-08T09:50:55.126Z,8.70
2018-12-08T09:53:23.389Z,8.60
2018-12-08T09:55:51.676Z,8.60
2018-12-08T09:58:20.150Z,8.60
2018-12-08T10:00:48.415Z,8.60
2018-12-08T10:03:16.800Z,8.60
2018-12-08T10:05:45.050Z,8.70
2018-12-08T10:08:13.280Z,8.70
2018-12-08T10:10:41.507Z,8.80
2018-12-08T10:13:09.697Z,8.70
2018-12-08T10:15:37.966Z,8.80
2018-12-08T10:18:07.607Z,8.80
2018-12-08T10:20:35.783Z,8.80
2018-12-08T10:23:04.059Z,8.80
2018-12-08T10:25:32.429Z,8.90
2018-12-08T10:28:00.610Z,8.90
2018-12-08T10:30:28.777Z,8.90
2018-12-08T10:32:57.486Z,8.90
2018-12-08T10:35:25.774Z,8.90
2018-12-08T10:37:53.991Z,9.00
2018-12-08T10:40:22.282Z,9.00
2018-12-08T10:42:50.549Z,8.90
2018-12-08T10:45:18.851Z,8.90
2018-12-08T10:47:47.051Z,8.90
2018-12-08T10:50:15.241Z,8.90
2018-12-08T10:52:43.654Z,9.00
2018-12-08T10:55:12.594Z,9.00
2018-12-08T10:57:40.925Z,9.10
2018-12-08T11:00:14.447Z,9.20
2018-12-08T11:02:47.132Z,9.20
2018-12-08T11:05:15.295Z,9.30
2018-12-08T11:07:43.662Z,9.40
2018-12-08T11:10:11.920Z,9.50
2018-12-08T11:12:40.188Z,9.60
2018-12-08T11:15:09.136Z,9.70
2018-12-08T11:17:37.316Z,9.70
2018-12-08T11:20:06.182Z,9.70
2018-12-08T11:22:34.962Z,9.80
2018-12-08T11:25:03.225Z,9.90
2018-12-08T11:27:31.606Z,10.00
2018-12-08T11:29:59.920Z,10.00
2018-12-08T11:32:28.178Z,10.10
2018-12-08T11:34:56.433Z,10.10
2018-12-08T11:37:24.718Z,10.20
2018-12-08T11:39:52.998Z,10.20
2018-12-08T11:42:21.592Z,10.20
2018-12-08T11:44:50.063Z,10.20
2018-12-08T11:47:18.567Z,10.30
2018-12-08T11:49:46.835Z,10.60
2018-12-08T11:52:15.121Z,10.20
2018-12-08T11:54:43.582Z,10.20
2018-12-08T11:57:11.939Z,10.20
2018-12-08T11:59:40.171Z,10.10
2018-12-08T12:02:16.345Z,10.10
2018-12-08T12:04:38.767Z,10.10
2018-12-08T12:07:06.994Z,10.00
2018-12-08T12:09:35.238Z,10.00
2018-12-08T12:12:03.545Z,10.00
2018-12-08T12:14:43.714Z,10.10
2018-12-08T12:17:11.889Z,10.10
2018-12-08T12:19:40.065Z,10.10
2018-12-08T12:22:08.313Z,10.10
2018-12-08T12:24:36.486Z,10.10
2018-12-08T12:27:05.124Z,10.10
2018-12-08T12:29:33.367Z,10.00
2018-12-08T12:32:01.757Z,10.00
2018-12-08T12:34:30.084Z,10.00
2018-12-08T12:36:58.366Z,10.00
2018-12-08T12:39:26.671Z,10.00
2018-12-08T12:41:54.942Z,10.00
2018-12-08T12:44:23.213Z,10.00
2018-12-08T12:46:51.395Z,10.00
2018-12-08T12:49:19.692Z,9.90
2018-12-08T12:51:48.063Z,9.90
2018-12-08T12:54:16.273Z,9.90
2018-12-08T12:56:44.484Z,9.80
2018-12-08T12:59:12.703Z,9.80
2018-12-08T13:01:41.667Z,9.80
2018-12-08T13:04:09.831Z,9.80
2018-12-08T13:06:38.136Z,10.00
2018-12-08T13:09:07.542Z,10.00
2018-12-08T13:11:35.824Z,10.10
2018-12-08T13:14:04.173Z,10.20
2018-12-08T13:16:32.507Z,10.30
2018-12-08T13:19:01.032Z,10.30
2018-12-08T13:21:29.246Z,10.30
2018-12-08T13:23:57.626Z,10.40
2018-12-08T13:26:26.403Z,10.30
2018-12-08T13:28:54.652Z,10.30
2018-12-08T13:31:22.817Z,10.20
2018-12-08T13:33:52.751Z,10.20
2018-12-08T13:36:21.071Z,10.20
2018-12-08T13:38:49.368Z,10.20
2018-12-08T13:41:17.727Z,10.30
2018-12-08T13:43:53.861Z,10.40
2018-12-08T13:46:22.242Z,10.40
2018-12-08T13:48:50.536Z,10.50
2018-12-08T13:51:19.316Z,10.50
2018-12-08T13:53:47.542Z,10.50
2018-12-08T13:56:15.726Z,10.50
2018-12-08T13:58:43.970Z,10.50
2018-12-08T14:01:12.235Z,10.50
2018-12-08T14:03:40.418Z,10.60
2018-12-08T14:06:09.093Z,10.50
2018-12-08T14:08:37.368Z,10.60
2018-12-08T14:11:05.657Z,10.60
2018-12-08T14:13:33.915Z,10.60
2018-12-08T14:16:02.107Z,10.70
2018-12-08T14:18:30.386Z,10.60
2018-12-08T14:20:58.930Z,10.60
2018-12-08T14:23:27.280Z,10.60
2018-12-08T14:25:55.619Z,10.70
2018-12-08T14:28:23.859Z,10.60
2018-12-08T14:30:52.208Z,10.60
2018-12-08T14:33:20.395Z,10.60
2018-12-08T14:35:48.592Z,10.60
2018-12-08T14:38:16.745Z,10.60
2018-12-08T14:40:45.015Z,10.60
2018-12-08T14:43:13.450Z,10.60
2018-12-08T14:45:41.666Z,10.70
2018-12-08T14:48:09.918Z,10.60
2018-12-08T14:50:38.150Z,10.60
2018-12-08T14:53:06.575Z,10.60
2018-12-08T14:55:34.789Z,10.60
2018-12-08T14:58:03.905Z,10.50
2018-12-08T15:00:32.336Z,10.60
2018-12-08T15:03:00.610Z,10.50
2018-12-08T15:05:29.585Z,10.60
2018-12-08T15:07:57.767Z,10.60
2018-12-08T15:10:26.011Z,10.50
2018-12-08T15:12:54.209Z,10.50
2018-12-08T15:15:22.615Z,10.40
2018-12-08T15:17:51.552Z,10.30
2018-12-08T15:20:21.133Z,10.30
2018-12-08T15:22:49.312Z,10.20
2018-12-08T15:25:17.513Z,10.20
2018-12-08T15:27:45.748Z,10.20
2018-12-08T15:30:14.029Z,10.30
2018-12-08T15:32:42.205Z,10.30
2018-12-08T15:35:12.340Z,10.40
2018-12-08T15:37:41.197Z,10.40
2018-12-08T15:40:10.228Z,10.40
2018-12-08T15:42:38.946Z,10.40
2018-12-08T15:45:09.431Z,10.50
2018-12-08T15:47:37.742Z,10.50
2018-12-08T15:50:06.580Z,10.50
2018-12-08T15:52:34.947Z,10.50
2018-12-08T15:55:03.982Z,10.50
2018-12-08T15:57:32.169Z,10.50
2018-12-08T16:00:00.342Z,10.60
2018-12-08T16:02:28.675Z,10.60
2018-12-08T16:04:56.900Z,10.60
2018-12-08T16:07:25.538Z,10.50
2018-12-08T16:09:53.942Z,10.50
2018-12-08T16:12:22.684Z,10.50
2018-12-08T16:14:51.015Z,10.50
2018-12-08T16:17:19.318Z,10.50
2018-12-08T16:19:47.580Z,10.50
2018-12-08T16:22:16.247Z,10.50
2018-12-08T16:24:44.663Z,10.50
2018-12-08T16:27:12.839Z,10.50
2018-12-08T16:29:41.116Z,10.50
2018-12-08T16:32:09.302Z,10.60
2018-12-08T16:34:37.617Z,10.60
2018-12-08T16:37:05.855Z,10.60
2018-12-08T16:39:34.126Z,10.60
2018-12-08T16:42:02.530Z,10.60
2018-12-08T16:44:30.722Z,10.60
2018-12-08T16:46:58.927Z,10.50
2018-12-08T16:49:27.155Z,10.50
2018-12-08T16:51:55.547Z,10.50
2018-12-08T16:54:23.839Z,10.50
2018-12-08T16:56:52.245Z,10.50
2018-12-08T16:59:20.406Z,10.50
2018-12-08T17:01:52.269Z,10.50
2018-12-08T17:04:21.638Z,10.50
2018-12-08T17:06:49.964Z,10.50
2018-12-08T17:09:18.135Z,10.50
2018-12-08T17:11:46.354Z,10.50
2018-12-08T17:14:14.541Z,10.40
2018-12-08T17:16:43.316Z,10.40
2018-12-08T17:19:11.477Z,10.30
2018-12-08T17:21:39.819Z,10.30
2018-12-08T17:24:08.224Z,10.30
2018-12-08T17:26:36.474Z,10.30
2018-12-08T17:29:06.089Z,10.30
2018-12-08T17:31:34.677Z,10.20
2018-12-08T17:34:02.996Z,10.00
2018-12-08T17:36:31.346Z,10.00
2018-12-08T17:38:59.531Z,9.90
2018-12-08T17:41:27.694Z,9.90
2018-12-08T17:43:56.155Z,10.00
2018-12-08T17:46:24.325Z,10.00
2018-12-08T17:48:52.513Z,10.00
2018-12-08T17:51:20.774Z,10.10
2018-12-08T17:53:49.062Z,10.10
2018-12-08T17:56:17.694Z,10.10
2018-12-08T17:58:45.876Z,10.10
2018-12-08T18:01:14.054Z,10.10
2018-12-08T18:03:42.258Z,10.10
2018-12-08T18:06:10.498Z,10.20
2018-12-08T18:08:38.679Z,10.10
2018-12-08T18:11:07.059Z,10.10
2018-12-08T18:13:35.336Z,10.10
2018-12-08T18:16:03.824Z,10.10
2018-12-08T18:18:32.762Z,10.00
2018-12-08T18:21:01.165Z,10.00
2018-12-08T18:23:30.181Z,10.00
2018-12-08T18:25:58.638Z,10.00
2018-12-08T18:28:26.908Z,10.00
2018-12-08T18:30:55.068Z,10.00
2018-12-08T18:33:23.500Z,10.00
2018-12-08T18:35:51.686Z,10.00
2018-12-08T18:38:20.551Z,10.00
2018-12-08T18:40:48.758Z,9.90
2018-12-08T18:43:16.970Z,9.80
2018-12-08T18:45:45.593Z,9.80
2018-12-08T18:48:13.826Z,9.70
2018-12-08T18:50:42.077Z,9.80
2018-12-08T18:53:10.399Z,9.70
2018-12-08T18:55:38.563Z,9.70
2018-12-08T18:58:06.725Z,9.60
2018-12-08T19:00:35.167Z,9.60
2018-12-08T19:03:03.504Z,9.50
2018-12-08T19:05:31.863Z,9.40
2018-12-08T19:08:01.120Z,9.30
2018-12-08T19:10:29.279Z,9.30
2018-12-08T19:12:57.438Z,9.30
2018-12-08T19:15:25.918Z,9.40
2018-12-08T19:17:54.284Z,9.40
2018-12-08T19:20:22.550Z,9.30
2018-12-08T19:22:51.221Z,9.20
2018-12-08T19:25:19.438Z,9.20
2018-12-08T19:27:47.623Z,9.20
2018-12-08T19:30:15.948Z,9.20
2018-12-08T19:32:44.456Z,9.20
2018-12-08T19:35:12.670Z,9.30
2018-12-08T19:37:40.848Z,9.30
2018-12-08T19:40:09.459Z,9.30
2018-12-08T19:42:39.489Z,9.30
2018-12-08T19:45:08.327Z,9.30
2018-12-08T19:47:36.776Z,9.30
2018-12-08T19:50:05.303Z,9.30
2018-12-08T19:52:33.654Z,9.40
2018-12-08T19:55:02.562Z,9.40
2018-12-08T19:57:30.719Z,9.40
2018-12-08T19:59:59.438Z,9.40
2018-12-08T20:02:27.653Z,9.50
2018-12-08T20:04:55.815Z,9.50
2018-12-08T20:07:24.121Z,9.60
2018-12-08T20:09:52.290Z,9.60
2018-12-08T20:12:20.463Z,9.70
2018-12-08T20:14:48.880Z,9.80
2018-12-08T20:17:17.162Z,9.80
2018-12-08T20:19:45.598Z,9.80
2018-12-08T20:22:14.081Z,9.80
2018-12-08T20:24:42.611Z,9.80
2018-12-08T20:27:10.816Z,9.80
2018-12-08T20:29:39.016Z,9.80
2018-12-08T20:32:07.469Z,9.80
2018-12-08T20:34:35.686Z,9.80
2018-12-08T20:37:04.020Z,9.80
2018-12-08T20:39:32.351Z,9.80
2018-12-08T20:42:00.547Z,9.80
2018-12-08T20:44:28.786Z,9.90
2018-12-08T20:46:57.113Z,9.90
2018-12-08T20:49:25.354Z,10.00
2018-12-08T20:51:53.874Z,10.00
2018-12-08T20:54:22.175Z,10.00
2018-12-08T20:56:50.421Z,10.00
2018-12-08T20:59:18.554Z,10.10
2018-12-08T21:01:47.063Z,10.40
2018-12-08T21:04:15.457Z,10.50
2018-12-08T21:06:43.683Z,10.50
2018-12-08T21:09:11.910Z,10.60
2018-12-08T21:11:40.420Z,10.70
2018-12-08T21:14:08.751Z,10.80
2018-12-08T21:16:37.095Z,10.80
2018-12-08T21:19:05.404Z,10.80
2018-12-08T21:21:33.733Z,10.80
2018-12-08T21:24:02.611Z,10.70
2018-12-08T21:26:30.955Z,10.70
2018-12-08T21:28:59.356Z,10.50
2018-12-08T21:31:27.674Z,10.40
2018-12-08T21:33:55.847Z,10.40
2018-12-08T21:36:24.203Z,10.30
2018-12-08T21:38:52.463Z,10.30
2018-12-08T21:41:20.689Z,10.30
2018-12-08T21:43:48.859Z,10.30
2018-12-08T21:46:17.130Z,10.30
2018-12-08T21:48:45.354Z,10.30
2018-12-08T21:51:13.576Z,10.40
2018-12-08T21:53:41.813Z,10.30
2018-12-08T21:56:10.057Z,10.40
2018-12-08T21:58:38.285Z,10.30
2018-12-08T22:01:06.669Z,10.30
2018-12-08T22:03:34.807Z,10.30
2018-12-08T22:06:03.062Z,10.30
2018-12-08T22:08:31.278Z,10.20
2018-12-08T22:10:59.450Z,10.20
2018-12-08T22:13:27.625Z,10.30
2018-12-08T22:15:55.794Z,10.30
2018-12-08T22:18:23.965Z,10.30
2018-12-08T22:20:52.168Z,10.20
2018-12-08T22:23:20.330Z,10.30
2018-12-08T22:25:48.498Z,10.40
2018-12-08T22:28:16.807Z,10.50
2018-12-08T22:30:45.071Z,10.60
2018-12-08T22:33:13.246Z,10.60
2018-12-08T22:35:41.536Z,10.70
2018-12-08T22:38:09.699Z,10.70
2018-12-08T22:40:37.995Z,10.70
2018-12-08T22:43:06.155Z,10.70
2018-12-08T22:45:34.412Z,10.70
2018-12-08T22:48:03.190Z,10.90
2018-12-08T22:50:31.391Z,10.80
2018-12-08T22:52:59.553Z,10.90
2018-12-08T22:55:27.770Z,10.90
2018-12-08T22:57:55.972Z,10.90
2018-12-08T23:00:37.845Z,10.90
2018-12-08T23:03:06.111Z,11.00
2018-12-08T23:05:34.286Z,11.10
2018-12-08T23:08:03.082Z,11.10
2018-12-08T23:10:31.495Z,11.10
2018-12-08T23:12:59.772Z,11.00
2018-12-08T23:15:28.030Z,11.00
2018-12-08T23:17:56.303Z,11.00
2018-12-08T23:20:25.233Z,10.90
2018-12-08T23:22:53.638Z,10.40
2018-12-08T23:25:21.996Z,10.20
2018-12-08T23:27:50.159Z,10.10
2018-12-08T23:30:18.428Z,10.10
2018-12-08T23:32:46.760Z,10.00
2018-12-08T23:35:15.022Z,10.10
2018-12-08T23:37:43.186Z,10.20
2018-12-08T23:40:11.486Z,10.30
2018-12-08T23:42:39.864Z,10.30
2018-12-08T23:45:08.274Z,10.50
2018-12-08T23:47:36.452Z,10.60
2018-12-08T23:50:06.006Z,10.60
2018-12-08T23:52:34.320Z,10.60
2018-12-08T23:55:02.694Z,10.70
2018-12-08T23:57:30.858Z,10.60
2018-12-08T23:59:59.047Z,10.40
